Time;durP1;ratioP1;P1;durP2;ratioP2;P2;SDS_P1;SDS_P2;PMS_P1;PMS_P2;Temp;Humidity;BMP_temperature;BMP_pressure;BME280_temperature;BME280_humidity;BME280_pressure;Samples;Min_cycle;Max_cycle;Signal;HPM_P1;HPM_P2
2022/10/25 00:00:49;;;;;;;4.00;1.20;;;15.10;99.90;;;;;;5066250;28;20469;-70
2022/10/25 00:03:14;;;;;;;4.00;1.77;;;15.10;99.90;;;;;;5082517;28;20253;-71
2022/10/25 00:05:41;;;;;;;2.40;1.10;;;15.10;99.90;;;;;;5078579;28;20181;-71
2022/10/25 00:08:07;;;;;;;1.10;0.73;;;15.10;99.90;;;;;;5073866;28;20185;-70
2022/10/25 00:10:33;;;;;;;7.90;1.23;;;15.00;99.90;;;;;;5075304;28;20439;-71
2022/10/25 00:12:59;;;;;;;3.23;0.90;;;15.00;99.90;;;;;;5065315;28;20460;-71
2022/10/25 00:15:24;;;;;;;2.80;1.53;;;15.00;99.90;;;;;;5054759;28;20420;-71
2022/10/25 00:17:50;;;;;;;3.10;1.00;;;14.90;99.90;;;;;;5059712;28;20166;-72
2022/10/25 00:20:16;;;;;;;7.27;1.30;;;15.00;99.90;;;;;;5094260;28;20206;-72
2022/10/25 00:22:42;;;;;;;1.77;0.90;;;14.90;99.90;;;;;;5061582;28;20231;-71
2022/10/25 00:25:08;;;;;;;3.63;0.90;;;14.90;99.90;;;;;;5068923;28;20474;-71
2022/10/25 00:27:34;;;;;;;1.77;0.87;;;14.90;99.90;;;;;;5077039;28;20624;-71
2022/10/25 00:30:00;;;;;;;4.57;1.37;;;14.80;99.90;;;;;;5077116;28;20438;-71
2022/10/25 00:32:26;;;;;;;4.03;1.50;;;14.90;99.90;;;;;;5067867;28;20494;-71
2022/10/25 00:34:52;;;;;;;3.07;1.03;;;14.90;99.90;;;;;;5056207;28;20505;-71
2022/10/25 00:37:18;;;;;;;2.37;1.30;;;14.90;99.90;;;;;;5063761;28;20864;-71
2022/10/25 00:39:45;;;;;;;3.83;1.10;;;14.90;99.90;;;;;;5077175;28;20655;-71
2022/10/25 00:42:25;;;;;;;1.20;0.93;;;14.90;99.90;;;;;;5080335;28;20480;-72
2022/10/25 00:45:00;;;;;;;3.87;1.40;;;14.90;99.90;;;;;;5081408;28;20435;-71
2022/10/25 00:47:52;;;;;;;5.37;1.17;;;14.90;99.90;;;;;;5082408;28;20407;-70
2022/10/25 00:50:46;;;;;;;4.03;1.40;;;14.90;99.90;;;;;;5064707;28;20524;-71
2022/10/25 00:53:17;;;;;;;4.67;2.60;;;14.90;99.90;;;;;;5058505;28;20453;-69
2022/10/25 00:55:47;;;;;;;4.17;1.47;;;14.90;99.90;;;;;;5054219;28;20809;-69
2022/10/25 00:58:23;;;;;;;2.60;0.80;;;15.00;99.90;;;;;;5053087;28;20457;-70
2022/10/25 01:00:49;;;;;;;3.87;1.20;;;15.00;99.90;;;;;;5060851;28;20899;-71
2022/10/25 01:03:19;;;;;;;2.23;1.07;;;15.00;99.90;;;;;;5075558;28;20458;-70
2022/10/25 01:05:47;;;;;;;1.80;1.23;;;15.00;99.90;;;;;;5077018;28;20475;-69
2022/10/25 01:08:14;;;;;;;4.97;1.30;;;15.00;99.90;;;;;;5074073;28;20424;-69
2022/10/25 01:10:40;;;;;;;3.47;1.23;;;15.00;99.90;;;;;;5074175;28;20401;-71
2022/10/25 01:13:05;;;;;;;2.33;1.10;;;15.00;99.90;;;;;;5068836;28;20457;-70
2022/10/25 01:15:39;;;;;;;4.37;1.20;;;15.00;99.90;;;;;;5052241;28;20421;-71
2022/10/25 01:18:16;;;;;;;3.20;0.83;;;15.00;99.90;;;;;;5053735;28;20304;-71
2022/10/25 01:20:59;;;;;;;3.00;1.17;;;15.00;99.90;;;;;;5054107;28;20771;-71
2022/10/25 01:23:43;;;;;;;4.70;1.23;;;15.00;99.90;;;;;;5053912;28;20409;-70
2022/10/25 01:26:27;;;;;;;1.77;1.27;;;15.00;99.90;;;;;;5071363;28;20452;-71
2022/10/25 01:29:15;;;;;;;1.80;1.13;;;14.90;99.90;;;;;;5073806;28;20922;-71
2022/10/25 01:31:59;;;;;;;2.60;1.10;;;14.90;99.90;;;;;;5074351;28;20401;-71
2022/10/25 01:34:35;;;;;;;2.27;1.37;;;14.90;99.90;;;;;;5075170;28;20926;-71
2022/10/25 01:37:24;;;;;;;7.83;1.17;;;14.90;99.90;;;;;;5067564;28;20409;-71
2022/10/25 01:40:01;;;;;;;2.93;1.03;;;14.90;99.90;;;;;;5056164;28;20432;-70
2022/10/25 01:42:34;;;;;;;2.90;1.10;;;14.90;99.90;;;;;;5054850;28;20973;-71
2022/10/25 01:45:28;;;;;;;3.00;1.00;;;14.90;99.90;;;;;;5054681;28;20559;-71
2022/10/25 01:48:06;;;;;;;3.60;1.10;;;14.90;99.90;;;;;;5054969;28;20393;-71
2022/10/25 01:50:37;;;;;;;2.23;1.20;;;14.90;99.90;;;;;;5071570;28;20432;-71
2022/10/25 01:53:03;;;;;;;3.67;1.00;;;14.90;99.90;;;;;;5075995;28;20483;-71
2022/10/25 01:55:38;;;;;;;1.70;0.70;;;14.80;99.90;;;;;;5072237;28;20458;-71
2022/10/25 01:58:33;;;;;;;2.00;1.00;;;14.80;99.90;;;;;;5073078;28;20157;-71
2022/10/25 02:01:23;;;;;;;3.70;1.30;;;14.80;99.90;;;;;;5032814;28;20421;-71
2022/10/25 02:04:16;;;;;;;4.83;1.20;;;14.80;99.90;;;;;;5033440;28;20406;-71
2022/10/25 02:07:03;;;;;;;1.93;0.93;;;14.90;99.90;;;;;;5040542;28;20402;-70
2022/10/25 02:09:58;;;;;;;1.70;1.00;;;14.80;99.90;;;;;;5081035;28;20430;-71
2022/10/25 02:12:30;;;;;;;3.27;1.13;;;14.80;99.90;;;;;;5090092;28;20449;-70
2022/10/25 02:15:08;;;;;;;10.53;3.60;;;14.80;99.90;;;;;;5052673;28;20417;-71
2022/10/25 02:17:41;;;;;;;1.63;1.10;;;14.90;99.90;;;;;;5052853;28;20398;-71
2022/10/25 02:20:09;;;;;;;4.03;0.90;;;14.90;99.90;;;;;;5071534;28;20800;-71
2022/10/25 02:22:37;;;;;;;2.27;1.03;;;14.90;99.90;;;;;;5071483;28;20401;-71
2022/10/25 02:25:05;;;;;;;3.47;1.17;;;14.80;99.90;;;;;;5072497;28;20925;-70
2022/10/25 02:27:32;;;;;;;1.97;0.90;;;14.90;99.90;;;;;;5077733;28;20415;-71
2022/10/25 02:29:58;;;;;;;3.00;1.37;;;14.80;99.90;;;;;;5057095;28;20470;-71
2022/10/25 02:32:24;;;;;;;3.50;1.40;;;14.70;99.90;;;;;;5059786;28;20445;-71
2022/10/25 02:34:50;;;;;;;5.20;1.30;;;14.70;99.90;;;;;;5054478;28;20508;-71
2022/10/25 02:37:16;;;;;;;5.77;2.60;;;14.70;99.90;;;;;;5053739;28;20163;-71
2022/10/25 02:39:44;;;;;;;2.03;1.27;;;14.60;99.90;;;;;;5054126;28;20187;-71
2022/10/25 02:42:09;;;;;;;8.40;1.40;;;14.60;99.90;;;;;;5057598;28;20534;-71
2022/10/25 02:44:35;;;;;;;4.60;1.00;;;14.60;99.90;;;;;;5056864;28;20502;-71
2022/10/25 02:47:00;;;;;;;5.13;0.90;;;14.50;99.90;;;;;;5057705;28;20155;-72
2022/10/25 02:49:26;;;;;;;1.17;0.87;;;14.60;99.90;;;;;;5073483;28;20231;-71
2022/10/25 02:51:51;;;;;;;2.80;1.00;;;14.60;99.90;;;;;;5076043;28;20239;-71
2022/10/25 02:54:17;;;;;;;5.00;1.33;;;14.60;99.90;;;;;;5076200;28;20697;-71
2022/10/25 02:56:43;;;;;;;4.83;1.10;;;14.60;99.90;;;;;;5072247;28;20189;-70
2022/10/25 02:59:10;;;;;;;3.23;1.57;;;14.60;99.90;;;;;;5072130;28;20189;-70
2022/10/25 03:01:36;;;;;;;1.60;0.80;;;14.70;99.90;;;;;;5056143;28;20198;-70
2022/10/25 03:04:01;;;;;;;6.57;1.10;;;14.70;99.90;;;;;;5052156;28;20456;-69
2022/10/25 03:06:27;;;;;;;2.17;0.87;;;14.70;99.90;;;;;;5051587;28;20194;-71
2022/10/25 03:08:52;;;;;;;5.27;2.00;;;14.70;99.90;;;;;;5053918;28;20191;-71
2022/10/25 03:11:18;;;;;;;6.10;1.27;;;14.70;99.90;;;;;;5053397;28;20217;-70
2022/10/25 03:13:43;;;;;;;1.53;1.00;;;14.70;99.90;;;;;;5069241;28;20233;-71
2022/10/25 03:16:09;;;;;;;5.13;1.77;;;14.70;99.90;;;;;;5072729;28;20174;-71
2022/10/25 03:18:34;;;;;;;3.13;1.00;;;14.70;99.90;;;;;;5072912;28;20190;-71
2022/10/25 03:21:02;;;;;;;3.10;1.00;;;14.80;99.90;;;;;;5070889;28;20572;-71
2022/10/25 03:23:28;;;;;;;5.03;1.23;;;14.70;99.90;;;;;;5072801;28;20173;-71
2022/10/25 03:25:58;;;;;;;1.23;1.00;;;14.70;99.90;;;;;;5072264;28;20416;-73
2022/10/25 03:28:26;;;;;;;2.50;1.30;;;14.70;99.90;;;;;;5072180;28;20428;-70
2022/10/25 03:30:52;;;;;;;1.40;1.00;;;14.70;99.90;;;;;;5062480;28;20435;-71
2022/10/25 03:33:17;;;;;;;2.27;1.30;;;14.70;99.90;;;;;;5052239;28;20457;-71
2022/10/25 03:35:43;;;;;;;2.17;1.03;;;14.80;99.90;;;;;;5051640;28;20409;-71
2022/10/25 03:38:09;;;;;;;2.03;1.30;;;14.80;99.90;;;;;;5052230;28;20185;-72
2022/10/25 03:40:34;;;;;;;2.47;1.23;;;14.80;99.90;;;;;;5067230;28;20268;-70
2022/10/25 03:43:00;;;;;;;4.30;1.57;;;14.80;99.90;;;;;;5076115;28;20573;-72
2022/10/25 03:45:25;;;;;;;1.57;1.30;;;14.80;99.90;;;;;;5074838;28;20201;-71
2022/10/25 03:47:51;;;;;;;3.70;1.10;;;14.80;99.90;;;;;;5071673;28;20180;-71
2022/10/25 03:50:16;;;;;;;3.20;1.20;;;14.80;99.90;;;;;;5063009;28;20221;-70
2022/10/25 03:52:42;;;;;;;3.77;1.70;;;14.80;99.90;;;;;;5052515;28;20245;-72
2022/10/25 03:55:08;;;;;;;2.93;1.13;;;14.80;99.90;;;;;;5052763;28;20692;-73
2022/10/25 03:57:34;;;;;;;4.20;1.40;;;14.80;99.90;;;;;;5052992;28;20241;-71
2022/10/25 03:59:59;;;;;;;2.27;1.20;;;14.80;99.90;;;;;;5053807;28;20452;-71
2022/10/25 04:02:26;;;;;;;4.60;1.47;;;14.70;99.90;;;;;;5050883;28;20174;-70
2022/10/25 04:04:51;;;;;;;4.27;1.10;;;14.70;99.90;;;;;;5052165;28;20224;-71
2022/10/25 04:07:18;;;;;;;6.00;1.40;;;14.70;99.90;;;;;;5051454;28;20410;-72
2022/10/25 04:09:44;;;;;;;3.30;2.50;;;14.60;99.90;;;;;;5051447;28;20187;-70
2022/10/25 04:12:10;;;;;;;4.63;1.77;;;14.50;99.90;;;;;;5057426;28;20417;-71
2022/10/25 04:14:35;;;;;;;10.33;1.57;;;14.40;99.90;;;;;;5071005;28;20397;-71
2022/10/25 04:17:01;;;;;;;2.87;1.50;;;14.40;99.90;;;;;;5071324;28;20404;-70
2022/10/25 04:19:26;;;;;;;3.63;1.10;;;14.40;99.90;;;;;;5071262;28;20213;-70
2022/10/25 04:21:52;;;;;;;2.43;1.83;;;14.30;99.90;;;;;;5055112;28;20195;-71
2022/10/25 04:24:17;;;;;;;3.13;1.40;;;14.30;99.90;;;;;;5054676;28;20167;-71
2022/10/25 04:26:43;;;;;;;8.57;2.00;;;14.30;99.90;;;;;;5055505;28;20170;-71
2022/10/25 04:29:10;;;;;;;2.00;1.33;;;14.30;99.90;;;;;;5056293;28;20286;-71
2022/10/25 04:31:35;;;;;;;3.13;1.47;;;14.30;99.90;;;;;;5075435;28;20185;-70
2022/10/25 04:34:01;;;;;;;5.53;1.60;;;14.30;99.90;;;;;;5075072;28;20452;-72
2022/10/25 04:36:28;;;;;;;2.80;1.40;;;14.20;99.90;;;;;;5076526;28;20162;-70
2022/10/25 04:38:53;;;;;;;4.50;1.37;;;14.30;99.90;;;;;;5074955;28;20182;-71
2022/10/25 04:41:20;;;;;;;3.37;1.23;;;14.30;99.90;;;;;;5057054;28;20414;-70
2022/10/25 04:43:46;;;;;;;1.80;1.50;;;14.30;99.90;;;;;;5056895;28;20165;-70
2022/10/25 04:46:12;;;;;;;2.60;1.47;;;14.30;99.90;;;;;;5054436;28;20414;-70
2022/10/25 04:48:40;;;;;;;4.00;1.40;;;14.30;99.90;;;;;;5054482;28;20517;-70
2022/10/25 04:51:06;;;;;;;3.17;1.40;;;14.30;99.90;;;;;;5072738;28;20424;-71
2022/10/25 04:53:32;;;;;;;3.67;1.10;;;14.30;99.90;;;;;;5074394;28;20452;-71
2022/10/25 04:55:59;;;;;;;1.50;1.20;;;14.30;99.90;;;;;;5078389;28;20773;-71
2022/10/25 04:58:26;;;;;;;5.13;1.73;;;14.30;99.90;;;;;;5083948;28;20186;-70
2022/10/25 05:00:53;;;;;;;5.10;1.50;;;14.30;99.90;;;;;;5076351;28;20481;-70
2022/10/25 05:03:19;;;;;;;4.23;1.63;;;14.30;99.90;;;;;;5095183;28;20432;-71
2022/10/25 05:05:45;;;;;;;3.27;1.23;;;14.30;99.90;;;;;;5090426;28;20779;-70
2022/10/25 05:08:11;;;;;;;3.10;1.53;;;14.20;99.90;;;;;;5057603;28;20430;-70
2022/10/25 05:10:36;;;;;;;4.73;1.80;;;14.20;99.90;;;;;;5071990;28;21155;-71
2022/10/25 05:13:02;;;;;;;3.33;1.30;;;14.10;99.90;;;;;;5036002;28;20473;-71
2022/10/25 05:15:28;;;;;;;2.13;1.40;;;14.10;99.90;;;;;;5035650;28;20187;-70
2022/10/25 05:17:58;;;;;;;3.20;1.30;;;14.10;99.90;;;;;;5037053;28;20175;-71
2022/10/25 05:20:24;;;;;;;6.80;1.50;;;14.10;99.90;;;;;;5065324;28;20866;-70
2022/10/25 05:22:49;;;;;;;5.73;1.63;;;14.10;99.90;;;;;;5075618;28;20425;-70
2022/10/25 05:25:15;;;;;;;2.50;1.30;;;14.10;99.90;;;;;;5075083;28;20401;-71
2022/10/25 05:27:41;;;;;;;4.80;2.50;;;14.00;99.90;;;;;;5076181;28;20166;-71
2022/10/25 05:30:07;;;;;;;5.20;1.50;;;14.00;99.90;;;;;;5059866;28;20194;-71
2022/10/25 05:32:33;;;;;;;4.23;1.70;;;14.00;99.90;;;;;;5053420;28;20199;-72
2022/10/25 05:34:58;;;;;;;1.97;1.40;;;13.90;99.90;;;;;;5055685;28;20397;-71
2022/10/25 05:37:24;;;;;;;14.17;2.00;;;13.90;99.90;;;;;;5088440;28;20270;-70
2022/10/25 05:39:49;;;;;;;4.87;1.97;;;13.80;99.90;;;;;;5066950;28;20214;-71
2022/10/25 05:42:15;;;;;;;4.13;1.80;;;13.80;99.90;;;;;;5076103;28;20166;-72
2022/10/25 05:44:40;;;;;;;4.43;2.00;;;13.70;99.90;;;;;;5074850;28;20159;-71
2022/10/25 05:47:06;;;;;;;4.93;1.90;;;13.70;99.90;;;;;;5075048;28;20173;-71
2022/10/25 05:49:33;;;;;;;1.43;1.20;;;13.70;99.90;;;;;;5074064;28;20202;-71
2022/10/25 05:51:58;;;;;;;4.80;1.37;;;13.70;99.90;;;;;;5060502;28;20171;-71
2022/10/25 05:54:24;;;;;;;8.73;2.40;;;13.60;99.90;;;;;;5088279;28;20528;-70
2022/10/25 05:56:49;;;;;;;4.40;1.87;;;13.60;99.90;;;;;;5088873;28;20179;-71
2022/10/25 05:59:15;;;;;;;3.67;2.07;;;13.60;99.90;;;;;;5056211;28;20202;-71
2022/10/25 06:01:43;;;;;;;3.90;1.60;;;13.60;99.90;;;;;;5086131;28;20221;-70
2022/10/25 06:04:09;;;;;;;8.80;1.97;;;13.50;99.90;;;;;;5056150;28;20170;-69
2022/10/25 06:06:36;;;;;;;5.20;1.60;;;13.50;99.90;;;;;;5056591;28;20410;-71
2022/10/25 06:09:03;;;;;;;3.30;1.57;;;13.50;99.90;;;;;;5054901;28;20203;-71
2022/10/25 06:11:29;;;;;;;2.40;1.70;;;13.50;99.90;;;;;;5060017;28;21096;-70
2022/10/25 06:13:55;;;;;;;11.27;2.30;;;13.50;99.90;;;;;;5075894;28;20456;-70
2022/10/25 06:16:21;;;;;;;5.00;1.90;;;13.50;99.90;;;;;;5075426;28;20411;-71
2022/10/25 06:18:47;;;;;;;7.33;2.13;;;13.50;99.90;;;;;;5076199;28;20424;-70
2022/10/25 06:21:15;;;;;;;2.13;1.93;;;13.50;99.90;;;;;;5074581;28;20174;-70
2022/10/25 06:23:41;;;;;;;5.90;2.70;;;13.50;99.90;;;;;;5068284;28;20317;-70
2022/10/25 06:26:13;;;;;;;13.13;8.00;;;13.50;99.90;;;;;;5055178;28;20412;-70
2022/10/25 06:28:39;;;;;;;4.23;2.10;;;13.50;99.90;;;;;;5055186;28;20444;-71
2022/10/25 06:31:14;;;;;;;5.67;1.77;;;13.60;99.90;;;;;;5086568;28;20417;-71
2022/10/25 06:33:40;;;;;;;4.67;1.80;;;13.50;99.90;;;;;;5088258;28;20460;-71
2022/10/25 06:36:11;;;;;;;8.10;2.10;;;13.60;99.90;;;;;;5073065;28;20419;-70
2022/10/25 06:38:37;;;;;;;6.70;1.83;;;13.60;99.90;;;;;;5035646;28;20476;-71
2022/10/25 06:41:05;;;;;;;6.00;1.47;;;13.60;99.90;;;;;;5034888;28;20505;-71
2022/10/25 06:43:33;;;;;;;5.33;1.70;;;13.70;99.90;;;;;;5033677;28;20179;-71
2022/10/25 06:46:04;;;;;;;3.57;1.40;;;13.60;99.90;;;;;;5035742;28;20433;-70
2022/10/25 06:48:29;;;;;;;3.50;1.50;;;13.70;99.90;;;;;;5075730;28;20432;-71
2022/10/25 06:51:08;;;;;;;5.10;1.27;;;13.70;99.90;;;;;;5079828;28;20438;-70
2022/10/25 06:53:34;;;;;;;7.70;1.70;;;13.70;99.90;;;;;;5070854;28;20221;-71
2022/10/25 06:56:01;;;;;;;5.53;2.70;;;13.70;99.90;;;;;;5071888;28;20505;-71
2022/10/25 06:58:29;;;;;;;4.63;1.37;;;13.70;99.90;;;;;;5054232;28;20441;-71
2022/10/25 07:00:58;;;;;;;7.13;1.50;;;13.80;99.90;;;;;;5060694;28;20405;-71
2022/10/25 07:03:30;;;;;;;7.10;1.57;;;13.70;99.90;;;;;;5064621;28;20433;-71
2022/10/25 07:06:11;;;;;;;7.00;1.50;;;13.80;99.90;;;;;;5095235;28;20440;-71
2022/10/25 07:08:41;;;;;;;3.57;1.43;;;13.80;99.90;;;;;;5097554;28;20452;-70
2022/10/25 07:11:16;;;;;;;5.53;1.50;;;13.90;99.90;;;;;;5075744;28;20475;-70
2022/10/25 07:13:42;;;;;;;5.90;3.70;;;14.00;99.90;;;;;;5072086;28;20811;-70
2022/10/25 07:16:10;;;;;;;3.87;1.90;;;14.10;99.90;;;;;;5071701;28;20989;-70
2022/10/25 07:18:36;;;;;;;3.50;1.80;;;14.20;99.90;;;;;;5072212;28;20420;-70
2022/10/25 07:21:21;;;;;;;3.20;1.97;;;14.20;99.90;;;;;;5067275;28;20424;-71
2022/10/25 07:23:48;;;;;;;4.43;1.40;;;14.20;99.90;;;;;;5050568;28;20454;-71
2022/10/25 07:26:16;;;;;;;6.20;1.30;;;14.20;99.90;;;;;;5051616;28;20416;-70
2022/10/25 07:28:45;;;;;;;2.40;1.03;;;14.30;99.90;;;;;;5063399;28;20449;-70
2022/10/25 07:31:13;;;;;;;3.30;1.10;;;14.30;99.90;;;;;;5079287;28;20409;-71
2022/10/25 07:33:39;;;;;;;1.83;1.33;;;14.30;99.90;;;;;;5078798;28;20907;-70
2022/10/25 07:36:05;;;;;;;2.63;1.70;;;14.30;99.90;;;;;;5079161;28;20469;-71
2022/10/25 07:38:30;;;;;;;4.40;2.40;;;14.30;99.90;;;;;;5065895;28;20238;-70
2022/10/25 07:40:57;;;;;;;2.97;1.80;;;14.30;99.90;;;;;;5051721;28;20171;-70
2022/10/25 07:43:23;;;;;;;4.80;1.80;;;14.40;99.90;;;;;;5060951;28;20174;-71
2022/10/25 07:45:49;;;;;;;4.43;2.07;;;14.60;99.90;;;;;;5066450;28;20983;-71
2022/10/25 07:48:15;;;;;;;2.93;1.63;;;14.90;99.90;;;;;;5062834;28;20436;-72
2022/10/25 07:50:41;;;;;;;3.97;1.20;;;15.20;99.90;;;;;;5060055;28;20447;-70
2022/10/25 07:53:06;;;;;;;3.60;2.13;;;15.50;99.90;;;;;;5054692;28;20995;-71
2022/10/25 07:55:32;;;;;;;1.27;0.97;;;15.80;99.90;;;;;;5088726;28;20174;-71
2022/10/25 07:58:06;;;;;;;5.83;2.27;;;16.30;99.90;;;;;;5054204;28;20163;-72
2022/10/25 08:00:33;;;;;;;1.77;1.10;;;16.60;99.90;;;;;;5066037;28;20205;-71
2022/10/25 08:02:58;;;;;;;3.30;2.40;;;16.70;99.90;;;;;;5075448;28;20762;-70
2022/10/25 08:05:24;;;;;;;3.50;1.60;;;17.00;99.90;;;;;;5075182;28;20416;-70
2022/10/25 08:07:50;;;;;;;3.90;1.40;;;17.30;99.90;;;;;;5076190;28;20223;-70
2022/10/25 08:10:20;;;;;;;4.13;2.27;;;17.30;99.90;;;;;;5078775;28;20440;-71
2022/10/25 08:12:47;;;;;;;4.43;1.40;;;17.40;99.90;;;;;;5073282;28;20198;-70
2022/10/25 08:15:13;;;;;;;2.90;0.80;;;17.40;99.90;;;;;;5075067;28;20417;-72
2022/10/25 08:17:38;;;;;;;4.20;2.00;;;17.60;99.90;;;;;;5075884;28;20408;-71
2022/10/25 08:20:05;;;;;;;1.93;1.03;;;17.70;99.90;;;;;;5075034;28;20427;-71
2022/10/25 08:22:30;;;;;;;5.63;1.77;;;17.90;99.90;;;;;;5075598;28;20193;-70
2022/10/25 08:24:56;;;;;;;2.70;1.57;;;18.00;99.90;;;;;;5056887;28;20425;-70
2022/10/25 08:27:21;;;;;;;4.20;1.27;;;18.10;99.90;;;;;;5053761;28;20171;-71
2022/10/25 08:29:47;;;;;;;1.73;1.20;;;18.20;99.90;;;;;;5053601;28;20199;-72
2022/10/25 08:32:13;;;;;;;3.17;1.93;;;18.30;99.90;;;;;;5058666;28;20185;-71
2022/10/25 08:34:38;;;;;;;1.70;0.90;;;18.40;99.90;;;;;;5056410;28;20163;-72
2022/10/25 08:37:04;;;;;;;3.27;1.53;;;18.50;99.90;;;;;;5074582;28;20821;-70
2022/10/25 08:39:30;;;;;;;5.00;1.70;;;18.60;99.90;;;;;;5073443;28;20265;-70
2022/10/25 08:41:58;;;;;;;3.00;1.37;;;19.10;99.90;;;;;;5074699;28;20166;-70
2022/10/25 08:44:37;;;;;;;3.97;1.07;;;19.30;99.90;;;;;;5074444;28;20167;-70
2022/10/25 08:47:14;;;;;;;3.00;1.10;;;19.50;99.90;;;;;;5074606;28;20541;-70
2022/10/25 08:49:51;;;;;;;1.97;1.33;;;19.70;99.90;;;;;;5051032;28;20475;-70
2022/10/25 08:52:42;;;;;;;3.10;1.00;;;20.40;99.90;;;;;;5054464;28;20949;-71
2022/10/25 08:55:15;;;;;;;2.60;1.13;;;20.90;99.90;;;;;;5054230;28;20455;-70
2022/10/25 08:57:45;;;;;;;2.43;1.23;;;21.20;99.90;;;;;;5054481;28;20393;-70
2022/10/25 09:00:22;;;;;;;5.57;2.00;;;21.40;99.90;;;;;;5060378;28;20432;-70
2022/10/25 09:02:54;;;;;;;3.23;1.50;;;21.80;99.90;;;;;;5055555;28;20839;-70
2022/10/25 09:05:40;;;;;;;6.70;1.70;;;22.10;99.90;;;;;;5052636;28;20496;-70
2022/10/25 09:08:26;;;;;;;3.80;1.40;;;22.80;99.90;;;;;;5054188;28;20455;-71
2022/10/25 09:11:25;;;;;;;2.33;0.90;;;23.10;99.90;;;;;;5054225;28;20410;-70
2022/10/25 09:14:05;;;;;;;2.50;1.40;;;23.20;99.90;;;;;;5029562;28;20826;-71
2022/10/25 09:17:03;;;;;;;3.33;2.53;;;23.20;99.90;;;;;;5034050;28;20761;-70
2022/10/25 09:19:34;;;;;;;2.80;1.30;;;23.10;99.90;;;;;;5066222;28;20430;-70
2022/10/25 09:22:12;;;;;;;6.90;1.77;;;22.80;99.90;;;;;;5033993;28;20797;-70
2022/10/25 09:24:56;;;;;;;2.47;1.20;;;22.60;99.90;;;;;;5062789;28;20413;-70
2022/10/25 09:27:35;;;;;;;1.53;1.13;;;21.80;99.90;;;;;;5074024;28;20874;-70
2022/10/25 09:30:12;;;;;;;2.40;1.10;;;21.20;99.90;;;;;;5072443;28;20437;-70
2022/10/25 09:33:09;;;;;;;1.73;1.10;;;20.40;99.90;;;;;;5073719;28;20440;-70
2022/10/25 09:35:45;;;;;;;5.30;1.57;;;19.90;99.90;;;;;;5065398;28;20428;-70
2022/10/25 09:38:24;;;;;;;1.83;1.30;;;19.60;99.90;;;;;;5085949;28;20895;-70
2022/10/25 09:41:23;;;;;;;7.90;1.57;;;19.00;99.90;;;;;;5053667;28;20409;-70
2022/10/25 09:43:55;;;;;;;1.87;1.10;;;18.80;99.90;;;;;;5053044;28;20449;-70
2022/10/25 09:46:41;;;;;;;4.30;1.67;;;18.70;99.90;;;;;;5072281;28;20421;-71
2022/10/25 09:49:25;;;;;;;2.93;1.20;;;18.40;99.90;;;;;;5079145;28;20466;-70
2022/10/25 09:52:21;;;;;;;2.50;1.10;;;18.50;99.90;;;;;;5077251;28;20472;-72
2022/10/25 09:55:06;;;;;;;3.60;1.50;;;18.40;99.90;;;;;;5070763;28;20910;-72
2022/10/25 09:57:31;;;;;;;5.80;1.30;;;18.30;99.90;;;;;;5089833;28;20467;-71
2022/10/25 09:59:57;;;;;;;2.47;1.00;;;18.40;99.90;;;;;;5057838;28;21083;-72
2022/10/25 10:02:25;;;;;;;1.63;1.00;;;18.30;99.90;;;;;;5057220;28;20175;-71
2022/10/25 10:04:51;;;;;;;3.87;1.33;;;18.20;99.90;;;;;;5057657;28;20588;-71
2022/10/25 10:07:28;;;;;;;1.77;1.03;;;18.10;99.90;;;;;;5070338;28;20409;-71
2022/10/25 10:09:59;;;;;;;2.43;1.03;;;18.10;99.90;;;;;;5077505;28;20430;-71
2022/10/25 10:12:35;;;;;;;4.17;1.33;;;18.00;99.90;;;;;;5075838;28;20409;-71
2022/10/25 10:15:07;;;;;;;5.80;1.80;;;18.00;99.90;;;;;;5076083;28;20415;-71
2022/10/25 10:17:32;;;;;;;1.77;1.20;;;18.00;99.90;;;;;;5077288;28;20408;-72
2022/10/25 10:20:13;;;;;;;2.23;1.20;;;18.00;99.90;;;;;;5063150;28;20850;-71
2022/10/25 10:22:49;;;;;;;1.50;1.00;;;18.00;99.90;;;;;;5057533;28;20270;-71
2022/10/25 10:25:24;;;;;;;1.80;1.20;;;18.20;99.90;;;;;;5089059;28;20416;-72
2022/10/25 10:27:53;;;;;;;2.80;1.30;;;18.40;99.90;;;;;;5056944;28;20464;-70
2022/10/25 10:30:30;;;;;;;3.00;2.00;;;18.50;99.90;;;;;;5089152;28;20512;-71
2022/10/25 10:33:00;;;;;;;6.90;1.83;;;18.50;99.90;;;;;;5074333;28;20455;-71
2022/10/25 10:35:29;;;;;;;1.37;1.20;;;18.90;99.90;;;;;;5074969;28;20420;-72
2022/10/25 10:38:19;;;;;;;5.67;1.20;;;19.20;99.90;;;;;;5076381;28;20397;-71
2022/10/25 10:40:45;;;;;;;13.73;2.10;;;19.40;99.90;;;;;;5067368;28;20414;-71
2022/10/25 10:43:31;;;;;;;2.27;1.30;;;19.40;99.90;;;;;;5056415;28;20405;-71
2022/10/25 10:46:07;;;;;;;1.97;0.90;;;19.30;99.90;;;;;;5055775;28;20604;-71
2022/10/25 10:48:36;;;;;;;4.20;1.70;;;19.30;99.90;;;;;;5088275;28;20972;-72
2022/10/25 10:51:02;;;;;;;3.80;1.63;;;19.20;99.90;;;;;;5061818;28;20835;-71
2022/10/25 10:53:31;;;;;;;3.03;1.30;;;19.10;99.90;;;;;;5072763;28;20476;-70
2022/10/25 10:56:03;;;;;;;3.07;1.50;;;19.00;99.90;;;;;;5072197;28;20962;-70
2022/10/25 10:58:37;;;;;;;2.87;1.10;;;19.10;99.90;;;;;;5072319;28;20572;-71
2022/10/25 11:01:06;;;;;;;3.67;2.37;;;19.20;99.90;;;;;;5072315;28;20395;-70
2022/10/25 11:03:47;;;;;;;6.73;1.43;;;19.40;99.90;;;;;;5058115;28;20422;-71
2022/10/25 11:06:17;;;;;;;4.77;1.60;;;19.90;99.90;;;;;;5053020;28;20409;-72
2022/10/25 11:08:47;;;;;;;4.00;1.10;;;20.60;99.90;;;;;;5052535;28;20929;-70
2022/10/25 11:11:15;;;;;;;2.27;1.20;;;21.80;99.90;;;;;;5051879;28;20409;-70
2022/10/25 11:13:51;;;;;;;2.60;1.30;;;22.30;99.90;;;;;;5084131;28;20540;-70
2022/10/25 11:16:47;;;;;;;3.87;1.27;;;22.90;99.90;;;;;;5030433;28;20833;-71
2022/10/25 11:19:25;;;;;;;2.03;1.57;;;22.90;99.90;;;;;;5031954;28;20425;-71
2022/10/25 11:22:10;;;;;;;2.80;1.30;;;22.80;99.90;;;;;;5036639;28;20412;-70
2022/10/25 11:25:03;;;;;;;4.97;1.40;;;22.40;99.90;;;;;;5051613;28;20401;-70
2022/10/25 11:27:44;;;;;;;2.23;1.33;;;22.10;99.90;;;;;;5083370;28;20502;-70
2022/10/25 11:30:18;;;;;;;2.30;1.37;;;21.80;99.90;;;;;;5051737;28;20429;-70
2022/10/25 11:33:06;;;;;;;1.47;1.00;;;21.50;99.90;;;;;;5075693;28;20461;-70
2022/10/25 11:36:07;;;;;;;10.50;1.40;;;21.40;99.90;;;;;;5031683;28;20401;-71
2022/10/25 11:39:03;;;;;;;4.40;1.10;;;21.30;99.90;;;;;;5031742;28;20449;-71
2022/10/25 11:41:39;;;;;;;4.30;1.47;;;20.90;99.90;;;;;;5034637;28;20390;-72
2022/10/25 11:44:34;;;;;;;3.30;1.10;;;20.60;99.90;;;;;;5052236;28;20412;-71
2022/10/25 11:47:17;;;;;;;1.77;1.00;;;20.50;99.90;;;;;;5053173;28;20424;-71
2022/10/25 11:50:17;;;;;;;1.17;0.80;;;20.50;99.90;;;;;;5055920;28;20487;-71
2022/10/25 11:52:57;;;;;;;4.03;1.00;;;20.30;99.90;;;;;;5075322;28;20493;-71
2022/10/25 11:55:47;;;;;;;2.00;1.00;;;20.20;99.90;;;;;;5032156;28;20394;-71
2022/10/25 11:58:22;;;;;;;6.70;5.97;;;20.10;99.90;;;;;;5035304;28;20782;-71
2022/10/25 12:01:21;;;;;;;3.20;1.47;;;19.90;99.90;;;;;;5036006;28;20831;-70
2022/10/25 12:04:08;;;;;;;3.03;0.90;;;19.60;99.90;;;;;;5070031;28;20429;-72
2022/10/25 12:06:39;;;;;;;1.97;1.10;;;19.60;99.90;;;;;;5036908;28;20792;-72
2022/10/25 12:09:14;;;;;;;2.47;1.07;;;19.60;99.90;;;;;;5034480;28;20457;-71
2022/10/25 12:11:46;;;;;;;2.00;1.30;;;19.60;99.90;;;;;;5037875;28;20448;-71
2022/10/25 12:14:17;;;;;;;2.50;0.83;;;19.80;99.90;;;;;;5051280;28;20543;-71
2022/10/25 12:16:43;;;;;;;2.07;1.00;;;19.90;99.90;;;;;;5051431;28;20397;-71
2022/10/25 12:19:18;;;;;;;4.07;1.10;;;20.10;99.90;;;;;;5083562;28;20429;-71
2022/10/25 12:22:02;;;;;;;1.73;0.70;;;20.20;99.90;;;;;;5060053;28;20444;-70
2022/10/25 12:24:37;;;;;;;5.13;1.23;;;20.30;99.90;;;;;;5071131;28;20977;-70
2022/10/25 12:27:06;;;;;;;2.37;0.97;;;20.40;99.90;;;;;;5071318;28;20404;-70
2022/10/25 12:29:39;;;;;;;4.00;0.93;;;20.50;99.90;;;;;;5074593;28;20519;-71
2022/10/25 12:32:13;;;;;;;1.40;0.87;;;20.30;99.90;;;;;;5063190;28;20504;-71
2022/10/25 12:34:43;;;;;;;1.60;0.83;;;20.20;99.90;;;;;;5055212;28;20457;-71
2022/10/25 12:37:44;;;;;;;1.77;0.70;;;20.00;99.90;;;;;;5055871;28;20412;-72
2022/10/25 12:40:19;;;;;;;2.47;1.00;;;20.00;99.90;;;;;;5057875;28;20436;-72
2022/10/25 12:43:04;;;;;;;1.10;0.70;;;20.00;99.90;;;;;;5073397;28;20463;-71
2022/10/25 12:46:09;;;;;;;1.50;0.70;;;20.00;99.90;;;;;;5037311;28;21021;-69
2022/10/25 12:49:05;;;;;;;1.67;0.97;;;20.20;99.90;;;;;;5037688;28;20442;-72
2022/10/25 12:51:53;;;;;;;1.20;0.67;;;20.90;99.90;;;;;;5057695;28;20424;-71
2022/10/25 12:54:21;;;;;;;1.77;0.90;;;21.50;99.90;;;;;;5078037;28;20468;-71
2022/10/25 12:57:14;;;;;;;6.67;4.13;;;21.70;99.90;;;;;;5073659;28;20420;-71
2022/10/25 13:00:13;;;;;;;1.60;0.90;;;22.10;99.90;;;;;;5074429;28;20913;-70
2022/10/25 13:03:03;;;;;;;1.10;0.60;;;22.20;99.90;;;;;;5040244;28;20937;-71
2022/10/25 13:05:32;;;;;;;3.37;1.20;;;22.60;99.90;;;;;;5034955;28;20407;-72
2022/10/25 13:08:01;;;;;;;3.13;0.70;;;23.90;99.90;;;;;;5040505;28;20428;-72
2022/10/25 13:10:32;;;;;;;1.47;1.10;;;25.20;96.80;;;;;;5053289;28;20418;-72